sensor_id;sensor_type;location;lat;lon;timestamp;pressure;altitude;pressure_sealevel;temperature;humidity
5522;BME280;2783;48.730;8.006;2023-09-08T00:00:40;100171.09;;;20.10;100.00
5522;BME280;2783;48.730;8.006;2023-09-08T00:03:05;100168.59;;;20.07;100.00
5522;BME280;2783;48.730;8.006;2023-09-08T00:05:31;100175.19;;;20.03;100.00
5522;BME280;2783;48.730;8.006;2023-09-08T00:07:56;100177.88;;;20.03;100.00
5522;BME280;2783;48.730;8.006;2023-09-08T00:10:22;100179.19;;;19.98;100.00
5522;BME280;2783;48.730;8.006;2023-09-08T00:12:47;100178.31;;;19.97;100.00
5522;BME280;2783;48.730;8.006;2023-09-08T00:15:13;100179.06;;;19.99;100.00
5522;BME280;2783;48.730;8.006;2023-09-08T00:17:38;100174.09;;;19.93;100.00
5522;BME280;2783;48.730;8.006;2023-09-08T00:20:06;100172.34;;;19.92;100.00
5522;BME280;2783;48.730;8.006;2023-09-08T00:22:34;100176.13;;;19.90;100.00
5522;BME280;2783;48.730;8.006;2023-09-08T00:25:00;100173.66;;;19.87;100.00
5522;BME280;2783;48.730;8.006;2023-09-08T00:27:25;100174.59;;;19.86;100.00
5522;BME280;2783;48.730;8.006;2023-09-08T00:29:50;100177.19;;;19.87;100.00
5522;BME280;2783;48.730;8.006;2023-09-08T00:32:16;100174.28;;;19.90;100.00
5522;BME280;2783;48.730;8.006;2023-09-08T00:34:41;100173.56;;;19.88;100.00
5522;BME280;2783;48.730;8.006;2023-09-08T00:37:07;100173.00;;;19.83;100.00
5522;BME280;2783;48.730;8.006;2023-09-08T00:39:35;100172.22;;;19.81;100.00
5522;BME280;2783;48.730;8.006;2023-09-08T00:42:01;100173.38;;;19.77;100.00
5522;BME280;2783;48.730;8.006;2023-09-08T00:44:26;100172.72;;;19.74;100.00
5522;BME280;2783;48.730;8.006;2023-09-08T00:46:51;100166.69;;;19.70;100.00
5522;BME280;2783;48.730;8.006;2023-09-08T00:49:17;100164.09;;;19.69;100.00
5522;BME280;2783;48.730;8.006;2023-09-08T00:51:42;100168.84;;;19.65;100.00
5522;BME280;2783;48.730;8.006;2023-09-08T00:54:08;100164.50;;;19.62;100.00
5522;BME280;2783;48.730;8.006;2023-09-08T00:56:34;100173.47;;;19.63;100.00
5522;BME280;2783;48.730;8.006;2023-09-08T00:59:02;100172.03;;;19.57;100.00
5522;BME280;2783;48.730;8.006;2023-09-08T01:04:03;100168.88;;;19.51;100.00
5522;BME280;2783;48.730;8.006;2023-09-08T01:06:28;100160.34;;;19.44;100.00
5522;BME280;2783;48.730;8.006;2023-09-08T01:11:22;100164.84;;;19.44;100.00
5522;BME280;2783;48.730;8.006;2023-09-08T01:13:48;100165.06;;;19.41;100.00
5522;BME280;2783;48.730;8.006;2023-09-08T01:16:14;100160.19;;;19.33;100.00
5522;BME280;2783;48.730;8.006;2023-09-08T01:18:39;100160.84;;;19.37;100.00
5522;BME280;2783;48.730;8.006;2023-09-08T01:26:36;100161.25;;;19.31;100.00
5522;BME280;2783;48.730;8.006;2023-09-08T01:29:03;100161.41;;;19.28;100.00
5522;BME280;2783;48.730;8.006;2023-09-08T01:31:30;100158.53;;;19.31;100.00
5522;BME280;2783;48.730;8.006;2023-09-08T01:33:56;100157.50;;;19.33;100.00
5522;BME280;2783;48.730;8.006;2023-09-08T01:36:21;100162.00;;;19.33;100.00
5522;BME280;2783;48.730;8.006;2023-09-08T01:38:47;100164.97;;;19.28;100.00
5522;BME280;2783;48.730;8.006;2023-09-08T01:41:12;100158.91;;;19.25;100.00
5522;BME280;2783;48.730;8.006;2023-09-08T01:43:38;100165.28;;;19.24;100.00
5522;BME280;2783;48.730;8.006;2023-09-08T01:46:03;100164.72;;;19.19;100.00
5522;BME280;2783;48.730;8.006;2023-09-08T01:48:29;100159.53;;;19.16;100.00
5522;BME280;2783;48.730;8.006;2023-09-08T01:50:54;100159.53;;;19.16;100.00
5522;BME280;2783;48.730;8.006;2023-09-08T01:53:19;100166.84;;;19.14;100.00
5522;BME280;2783;48.730;8.006;2023-09-08T01:55:45;100163.19;;;19.15;100.00
5522;BME280;2783;48.730;8.006;2023-09-08T01:58:10;100160.78;;;19.10;100.00
5522;BME280;2783;48.730;8.006;2023-09-08T02:00:36;100162.72;;;19.08;100.00
5522;BME280;2783;48.730;8.006;2023-09-08T02:03:01;100165.31;;;19.10;100.00
5522;BME280;2783;48.730;8.006;2023-09-08T02:05:26;100153.00;;;19.06;100.00
5522;BME280;2783;48.730;8.006;2023-09-08T02:07:52;100167.44;;;19.05;100.00
5522;BME280;2783;48.730;8.006;2023-09-08T02:10:18;100160.44;;;19.02;100.00
5522;BME280;2783;48.730;8.006;2023-09-08T02:12:43;100164.16;;;19.00;100.00
5522;BME280;2783;48.730;8.006;2023-09-08T02:15:09;100162.66;;;18.96;100.00
5522;BME280;2783;48.730;8.006;2023-09-08T02:17:36;100159.28;;;18.92;100.00
5522;BME280;2783;48.730;8.006;2023-09-08T02:20:01;100161.09;;;18.92;100.00
5522;BME280;2783;48.730;8.006;2023-09-08T02:22:28;100162.09;;;18.91;100.00
5522;BME280;2783;48.730;8.006;2023-09-08T02:24:53;100161.56;;;18.98;100.00
5522;BME280;2783;48.730;8.006;2023-09-08T02:27:19;100167.06;;;18.97;100.00
5522;BME280;2783;48.730;8.006;2023-09-08T02:29:44;100166.28;;;18.95;100.00
5522;BME280;2783;48.730;8.006;2023-09-08T02:32:10;100163.69;;;18.93;100.00
5522;BME280;2783;48.730;8.006;2023-09-08T02:34:36;100168.41;;;18.90;100.00
5522;BME280;2783;48.730;8.006;2023-09-08T02:37:04;100177.69;;;18.86;100.00
5522;BME280;2783;48.730;8.006;2023-09-08T02:39:30;100161.72;;;18.83;100.00
5522;BME280;2783;48.730;8.006;2023-09-08T02:41:55;100171.63;;;18.82;100.00
5522;BME280;2783;48.730;8.006;2023-09-08T02:44:20;100173.53;;;18.80;100.00
5522;BME280;2783;48.730;8.006;2023-09-08T02:46:48;100181.72;;;18.79;100.00
5522;BME280;2783;48.730;8.006;2023-09-08T02:49:14;100177.31;;;18.78;100.00
5522;BME280;2783;48.730;8.006;2023-09-08T02:51:39;100174.97;;;18.72;100.00
5522;BME280;2783;48.730;8.006;2023-09-08T02:54:05;100183.84;;;18.74;100.00
5522;BME280;2783;48.730;8.006;2023-09-08T02:56:30;100191.34;;;18.69;100.00
5522;BME280;2783;48.730;8.006;2023-09-08T02:58:56;100194.25;;;18.66;100.00
5522;BME280;2783;48.730;8.006;2023-09-08T03:01:21;100187.50;;;18.73;100.00
5522;BME280;2783;48.730;8.006;2023-09-08T03:03:48;100187.88;;;18.67;100.00
5522;BME280;2783;48.730;8.006;2023-09-08T03:06:15;100187.72;;;18.70;100.00
5522;BME280;2783;48.730;8.006;2023-09-08T03:08:40;100188.06;;;18.64;100.00
5522;BME280;2783;48.730;8.006;2023-09-08T03:11:07;100192.53;;;18.65;100.00
5522;BME280;2783;48.730;8.006;2023-09-08T03:13:33;100188.06;;;18.64;100.00
5522;BME280;2783;48.730;8.006;2023-09-08T03:16:03;100195.97;;;18.67;100.00
5522;BME280;2783;48.730;8.006;2023-09-08T03:18:29;100194.25;;;18.66;100.00
5522;BME280;2783;48.730;8.006;2023-09-08T03:20:55;100194.53;;;18.61;100.00
5522;BME280;2783;48.730;8.006;2023-09-08T03:23:20;100189.34;;;18.58;100.00
5522;BME280;2783;48.730;8.006;2023-09-08T03:25:45;100202.88;;;18.57;100.00
5522;BME280;2783;48.730;8.006;2023-09-08T03:28:11;100198.66;;;18.53;100.00
5522;BME280;2783;48.730;8.006;2023-09-08T03:30:37;100197.88;;;18.51;100.00
5522;BME280;2783;48.730;8.006;2023-09-08T03:33:02;100191.81;;;18.47;100.00
5522;BME280;2783;48.730;8.006;2023-09-08T03:35:28;100200.00;;;18.46;100.00
5522;BME280;2783;48.730;8.006;2023-09-08T03:37:53;100204.59;;;18.44;100.00
5522;BME280;2783;48.730;8.006;2023-09-08T03:40:18;100198.38;;;18.43;100.00
5522;BME280;2783;48.730;8.006;2023-09-08T03:42:44;100198.47;;;18.42;100.00
5522;BME280;2783;48.730;8.006;2023-09-08T03:45:09;100202.09;;;18.41;100.00
5522;BME280;2783;48.730;8.006;2023-09-08T03:47:35;100210.34;;;18.37;100.00
5522;BME280;2783;48.730;8.006;2023-09-08T03:50:00;100201.38;;;18.37;100.00
5522;BME280;2783;48.730;8.006;2023-09-08T03:52:25;100205.16;;;18.34;100.00
5522;BME280;2783;48.730;8.006;2023-09-08T03:54:51;100199.69;;;18.36;100.00
5522;BME280;2783;48.730;8.006;2023-09-08T03:57:16;100203.25;;;18.36;100.00
5522;BME280;2783;48.730;8.006;2023-09-08T03:59:42;100205.06;;;18.36;100.00
5522;BME280;2783;48.730;8.006;2023-09-08T04:02:07;100206.28;;;18.30;100.00
5522;BME280;2783;48.730;8.006;2023-09-08T04:04:33;100207.72;;;18.22;100.00
5522;BME280;2783;48.730;8.006;2023-09-08T04:06:58;100210.50;;;18.20;100.00
5522;BME280;2783;48.730;8.006;2023-09-08T04:09:23;100210.59;;;18.19;100.00
5522;BME280;2783;48.730;8.006;2023-09-08T04:11:49;100207.22;;;18.15;100.00
5522;BME280;2783;48.730;8.006;2023-09-08T04:14:14;100210.88;;;18.14;100.00
5522;BME280;2783;48.730;8.006;2023-09-08T04:16:40;100211.06;;;18.11;100.00
5522;BME280;2783;48.730;8.006;2023-09-08T04:19:05;100217.34;;;18.12;100.00
5522;BME280;2783;48.730;8.006;2023-09-08T04:21:30;100214.03;;;18.07;100.00
5522;BME280;2783;48.730;8.006;2023-09-08T04:23:56;100214.19;;;18.04;100.00
5522;BME280;2783;48.730;8.006;2023-09-08T04:26:21;100214.28;;;18.02;100.00
5522;BME280;2783;48.730;8.006;2023-09-08T04:28:47;100210.94;;;17.99;100.00
5522;BME280;2783;48.730;8.006;2023-09-08T04:31:12;100211.88;;;17.98;100.00
5522;BME280;2783;48.730;8.006;2023-09-08T04:33:38;100208.31;;;17.97;100.00
5522;BME280;2783;48.730;8.006;2023-09-08T04:36:04;100206.59;;;17.96;100.00
5522;BME280;2783;48.730;8.006;2023-09-08T04:38:29;100212.06;;;17.95;100.00
5522;BME280;2783;48.730;8.006;2023-09-08T04:40:55;100217.56;;;17.93;100.00
5522;BME280;2783;48.730;8.006;2023-09-08T04:43:20;100206.09;;;17.90;100.00
5522;BME280;2783;48.730;8.006;2023-09-08T04:45:46;100194.53;;;17.74;100.00
5522;BME280;2783;48.730;8.006;2023-09-08T04:48:11;100219.84;;;17.85;100.00
5522;BME280;2783;48.730;8.006;2023-09-08T04:50:36;100224.25;;;17.86;100.00
5522;BME280;2783;48.730;8.006;2023-09-08T04:53:02;100215.47;;;17.83;100.00
5522;BME280;2783;48.730;8.006;2023-09-08T04:55:28;100227.13;;;17.83;100.00
5522;BME280;2783;48.730;8.006;2023-09-08T04:57:53;100217.38;;;17.81;100.00
5522;BME280;2783;48.730;8.006;2023-09-08T05:00:19;100222.78;;;17.81;100.00
5522;BME280;2783;48.730;8.006;2023-09-08T05:02:44;100226.34;;;17.81;100.00
5522;BME280;2783;48.730;8.006;2023-09-08T05:05:10;100223.84;;;17.78;100.00
5522;BME280;2783;48.730;8.006;2023-09-08T05:07:35;100223.16;;;17.75;100.00
5522;BME280;2783;48.730;8.006;2023-09-08T05:10:01;100224.22;;;17.72;100.00
5522;BME280;2783;48.730;8.006;2023-09-08T05:12:26;100223.16;;;17.75;100.00
5522;BME280;2783;48.730;8.006;2023-09-08T05:14:52;100239.09;;;17.78;100.00
5522;BME280;2783;48.730;8.006;2023-09-08T05:17:23;100226.44;;;17.80;100.00
5522;BME280;2783;48.730;8.006;2023-09-08T05:19:48;100229.91;;;17.82;100.00
5522;BME280;2783;48.730;8.006;2023-09-08T05:22:13;100232.50;;;17.83;100.00
5522;BME280;2783;48.730;8.006;2023-09-08T05:24:39;100238.59;;;17.87;100.00
5522;BME280;2783;48.730;8.006;2023-09-08T05:27:04;100243.59;;;17.93;100.00
5522;BME280;2783;48.730;8.006;2023-09-08T05:29:30;100239.59;;;18.00;100.00
5522;BME280;2783;48.730;8.006;2023-09-08T05:31:55;100238.38;;;18.05;100.00
5522;BME280;2783;48.730;8.006;2023-09-08T05:34:21;100239.91;;;18.09;100.00
5522;BME280;2783;48.730;8.006;2023-09-08T05:36:46;100232.31;;;18.16;100.00
5522;BME280;2783;48.730;8.006;2023-09-08T05:39:14;100231.63;;;18.12;100.00
5522;BME280;2783;48.730;8.006;2023-09-08T05:41:40;100237.44;;;18.20;100.00
5522;BME280;2783;48.730;8.006;2023-09-08T05:44:05;100242.28;;;18.29;100.00
5522;BME280;2783;48.730;8.006;2023-09-08T05:46:31;100241.69;;;18.38;100.00
5522;BME280;2783;48.730;8.006;2023-09-08T05:48:56;100245.00;;;18.44;100.00
5522;BME280;2783;48.730;8.006;2023-09-08T05:51:21;100248.97;;;18.52;100.00
5522;BME280;2783;48.730;8.006;2023-09-08T05:53:47;100251.22;;;18.60;100.00
5522;BME280;2783;48.730;8.006;2023-09-08T05:56:13;100256.22;;;18.66;100.00
5522;BME280;2783;48.730;8.006;2023-09-08T05:58:38;100262.88;;;18.74;100.00
5522;BME280;2783;48.730;8.006;2023-09-08T06:01:04;100266.06;;;18.81;100.00
5522;BME280;2783;48.730;8.006;2023-09-08T06:03:29;100265.47;;;18.90;100.00
5522;BME280;2783;48.730;8.006;2023-09-08T06:05:56;100261.03;;;19.03;100.00
5522;BME280;2783;48.730;8.006;2023-09-08T06:08:22;100262.84;;;19.16;100.00
5522;BME280;2783;48.730;8.006;2023-09-08T06:10:47;100253.94;;;19.30;100.00
5522;BME280;2783;48.730;8.006;2023-09-08T06:13:13;100263.72;;;19.45;100.00
5522;BME280;2783;48.730;8.006;2023-09-08T06:15:38;100259.25;;;19.58;100.00
5522;BME280;2783;48.730;8.006;2023-09-08T06:18:04;100258.25;;;19.73;100.00
5522;BME280;2783;48.730;8.006;2023-09-08T06:20:30;100262.81;;;19.85;100.00
5522;BME280;2783;48.730;8.006;2023-09-08T06:22:55;100269.63;;;20.05;100.00
5522;BME280;2783;48.730;8.006;2023-09-08T06:25:20;100266.88;;;20.31;100.00
5522;BME280;2783;48.730;8.006;2023-09-08T06:27:46;100263.50;;;20.79;100.00
5522;BME280;2783;48.730;8.006;2023-09-08T06:30:12;100255.44;;;21.41;100.00
5522;BME280;2783;48.730;8.006;2023-09-08T06:32:42;100256.78;;;21.95;100.00
5522;BME280;2783;48.730;8.006;2023-09-08T06:35:07;100258.72;;;22.40;97.40
5522;BME280;2783;48.730;8.006;2023-09-08T06:37:39;100255.41;;;22.48;92.65
5522;BME280;2783;48.730;8.006;2023-09-08T06:40:05;100264.38;;;22.37;90.67
5522;BME280;2783;48.730;8.006;2023-09-08T06:42:31;100273.00;;;22.42;91.63
5522;BME280;2783;48.730;8.006;2023-09-08T06:44:56;100269.97;;;23.70;92.20
5522;BME280;2783;48.730;8.006;2023-09-08T06:47:22;100267.56;;;25.72;82.61
5522;BME280;2783;48.730;8.006;2023-09-08T06:49:47;100265.00;;;27.51;70.61
5522;BME280;2783;48.730;8.006;2023-09-08T06:52:13;100272.13;;;28.86;63.05
5522;BME280;2783;48.730;8.006;2023-09-08T06:54:38;100265.00;;;29.52;57.16
5522;BME280;2783;48.730;8.006;2023-09-08T06:57:04;100286.09;;;29.26;56.87
5522;BME280;2783;48.730;8.006;2023-09-08T06:59:29;100279.66;;;28.66;59.17
5522;BME280;2783;48.730;8.006;2023-09-08T07:01:55;100279.75;;;27.94;61.13
5522;BME280;2783;48.730;8.006;2023-09-08T07:04:20;100284.38;;;27.30;63.04
5522;BME280;2783;48.730;8.006;2023-09-08T07:06:45;100279.63;;;26.67;66.30
5522;BME280;2783;48.730;8.006;2023-09-08T07:09:12;100277.16;;;26.35;68.44
5522;BME280;2783;48.730;8.006;2023-09-08T07:11:37;100283.00;;;26.02;71.47
5522;BME280;2783;48.730;8.006;2023-09-08T07:14:03;100279.00;;;26.16;71.66
5522;BME280;2783;48.730;8.006;2023-09-08T07:16:28;100277.00;;;26.56;70.97
5522;BME280;2783;48.730;8.006;2023-09-08T07:18:53;100278.94;;;27.11;69.96
5522;BME280;2783;48.730;8.006;2023-09-08T07:21:19;100277.31;;;27.64;66.52
5522;BME280;2783;48.730;8.006;2023-09-08T07:23:44;100286.34;;;28.01;63.68
5522;BME280;2783;48.730;8.006;2023-09-08T07:26:10;100278.13;;;28.01;63.08
5522;BME280;2783;48.730;8.006;2023-09-08T07:28:35;100277.31;;;28.18;62.86
5522;BME280;2783;48.730;8.006;2023-09-08T07:31:04;100282.16;;;28.60;62.38
5522;BME280;2783;48.730;8.006;2023-09-08T07:33:30;100279.06;;;28.98;59.99
5522;BME280;2783;48.730;8.006;2023-09-08T07:35:56;100291.13;;;28.87;60.48
5522;BME280;2783;48.730;8.006;2023-09-08T07:38:21;100287.47;;;29.22;59.29
5522;BME280;2783;48.730;8.006;2023-09-08T07:40:47;100286.16;;;29.34;58.86
5522;BME280;2783;48.730;8.006;2023-09-08T07:43:12;100276.03;;;29.60;58.58
5522;BME280;2783;48.730;8.006;2023-09-08T07:45:37;100284.69;;;29.81;57.64
5522;BME280;2783;48.730;8.006;2023-09-08T07:48:05;100284.06;;;29.95;56.43
5522;BME280;2783;48.730;8.006;2023-09-08T07:50:31;100285.44;;;29.99;57.41
5522;BME280;2783;48.730;8.006;2023-09-08T07:52:56;100289.25;;;30.14;55.75
5522;BME280;2783;48.730;8.006;2023-09-08T07:55:23;100294.41;;;30.17;55.48
5522;BME280;2783;48.730;8.006;2023-09-08T07:57:50;100293.69;;;30.07;56.16
5522;BME280;2783;48.730;8.006;2023-09-08T08:00:16;100283.25;;;30.19;57.15
5522;BME280;2783;48.730;8.006;2023-09-08T08:02:48;100285.72;;;30.30;56.16
5522;BME280;2783;48.730;8.006;2023-09-08T08:05:14;100275.78;;;30.53;55.91
5522;BME280;2783;48.730;8.006;2023-09-08T08:07:42;100285.41;;;30.73;55.18
5522;BME280;2783;48.730;8.006;2023-09-08T08:10:08;100278.72;;;30.67;54.97
5522;BME280;2783;48.730;8.006;2023-09-08T08:12:34;100280.09;;;30.63;56.14
5522;BME280;2783;48.730;8.006;2023-09-08T08:14:59;100270.69;;;30.90;54.67
5522;BME280;2783;48.730;8.006;2023-09-08T08:17:25;100273.94;;;31.02;53.78
5522;BME280;2783;48.730;8.006;2023-09-08T08:19:51;100272.00;;;31.18;53.05
5522;BME280;2783;48.730;8.006;2023-09-08T08:22:17;100274.75;;;31.34;52.77
5522;BME280;2783;48.730;8.006;2023-09-08T08:24:43;100273.34;;;31.46;52.45
5522;BME280;2783;48.730;8.006;2023-09-08T08:27:08;100281.19;;;31.57;51.62
5522;BME280;2783;48.730;8.006;2023-09-08T08:29:33;100272.75;;;31.59;52.83
5522;BME280;2783;48.730;8.006;2023-09-08T08:31:59;100277.53;;;31.65;52.59
5522;BME280;2783;48.730;8.006;2023-09-08T08:34:24;100275.88;;;31.56;52.83
5522;BME280;2783;48.730;8.006;2023-09-08T08:36:50;100275.25;;;31.76;51.81
5522;BME280;2783;48.730;8.006;2023-09-08T08:39:15;100278.03;;;32.15;50.60
5522;BME280;2783;48.730;8.006;2023-09-08T08:41:41;100283.84;;;32.20;50.36
5522;BME280;2783;48.730;8.006;2023-09-08T08:44:09;100274.94;;;32.41;50.35
5522;BME280;2783;48.730;8.006;2023-09-08T08:46:38;100275.78;;;32.86;48.30
5522;BME280;2783;48.730;8.006;2023-09-08T08:49:05;100269.69;;;32.76;49.20
5522;BME280;2783;48.730;8.006;2023-09-08T08:51:32;100268.56;;;32.85;48.74
5522;BME280;2783;48.730;8.006;2023-09-08T08:53:57;100276.91;;;32.77;48.28
5522;BME280;2783;48.730;8.006;2023-09-08T08:56:23;100279.19;;;32.96;48.58
5522;BME280;2783;48.730;8.006;2023-09-08T08:58:49;100271.03;;;33.03;49.01
5522;BME280;2783;48.730;8.006;2023-09-08T09:01:16;100268.28;;;33.17;47.78
5522;BME280;2783;48.730;8.006;2023-09-08T09:03:48;100269.69;;;33.28;48.14
5522;BME280;2783;48.730;8.006;2023-09-08T09:06:14;100273.22;;;33.36;48.24
5522;BME280;2783;48.730;8.006;2023-09-08T09:08:43;100262.50;;;33.56;47.32
5522;BME280;2783;48.730;8.006;2023-09-08T09:11:09;100264.50;;;33.77;46.76
5522;BME280;2783;48.730;8.006;2023-09-08T09:13:35;100266.19;;;34.07;46.54
5522;BME280;2783;48.730;8.006;2023-09-08T09:16:01;100267.66;;;33.59;47.22
5522;BME280;2783;48.730;8.006;2023-09-08T09:18:31;100270.38;;;34.03;47.00
5522;BME280;2783;48.730;8.006;2023-09-08T09:20:59;100276.28;;;34.00;45.60
5522;BME280;2783;48.730;8.006;2023-09-08T09:23:31;100264.78;;;33.96;46.12
5522;BME280;2783;48.730;8.006;2023-09-08T09:25:57;100264.47;;;34.06;46.77
5522;BME280;2783;48.730;8.006;2023-09-08T09:28:24;100256.00;;;34.28;46.18
5522;BME280;2783;48.730;8.006;2023-09-08T09:30:51;100262.56;;;34.42;46.20
5522;BME280;2783;48.730;8.006;2023-09-08T09:33:18;100263.50;;;34.49;46.46
5522;BME280;2783;48.730;8.006;2023-09-08T09:35:45;100261.94;;;34.61;45.46
5522;BME280;2783;48.730;8.006;2023-09-08T09:38:12;100257.66;;;34.86;45.52
5522;BME280;2783;48.730;8.006;2023-09-08T09:40:38;100258.97;;;35.11;44.62
5522;BME280;2783;48.730;8.006;2023-09-08T09:43:05;100260.41;;;35.35;44.46
5522;BME280;2783;48.730;8.006;2023-09-08T09:45:34;100257.00;;;35.67;43.91
5522;BME280;2783;48.730;8.006;2023-09-08T09:48:01;100259.97;;;35.65;43.05
5522;BME280;2783;48.730;8.006;2023-09-08T09:50:35;100259.19;;;35.71;43.11
5522;BME280;2783;48.730;8.006;2023-09-08T09:53:08;100257.03;;;35.73;43.16
5522;BME280;2783;48.730;8.006;2023-09-08T09:55:36;100251.25;;;36.03;43.76
5522;BME280;2783;48.730;8.006;2023-09-08T09:58:02;100247.25;;;36.31;43.04
5522;BME280;2783;48.730;8.006;2023-09-08T10:00:30;100249.97;;;36.12;42.36
5522;BME280;2783;48.730;8.006;2023-09-08T10:02:57;100250.44;;;36.22;41.88
5522;BME280;2783;48.730;8.006;2023-09-08T10:05:26;100249.19;;;36.31;42.31
5522;BME280;2783;48.730;8.006;2023-09-08T10:07:52;100255.50;;;35.64;42.89
5522;BME280;2783;48.730;8.006;2023-09-08T10:10:18;100242.66;;;35.50;43.06
5522;BME280;2783;48.730;8.006;2023-09-08T10:12:45;100248.09;;;35.71;42.79
5522;BME280;2783;48.730;8.006;2023-09-08T10:15:12;100246.13;;;36.00;42.98
5522;BME280;2783;48.730;8.006;2023-09-08T10:17:40;100246.69;;;35.89;42.23
5522;BME280;2783;48.730;8.006;2023-09-08T10:20:07;100240.59;;;36.06;43.15
5522;BME280;2783;48.730;8.006;2023-09-08T10:22:38;100251.28;;;36.16;42.24
5522;BME280;2783;48.730;8.006;2023-09-08T10:25:06;100245.69;;;35.62;43.15
5522;BME280;2783;48.730;8.006;2023-09-08T10:27:31;100233.72;;;35.48;44.28
5522;BME280;2783;48.730;8.006;2023-09-08T10:30:00;100234.69;;;36.22;42.63
5522;BME280;2783;48.730;8.006;2023-09-08T10:32:26;100240.50;;;36.40;42.05
5522;BME280;2783;48.730;8.006;2023-09-08T10:34:53;100242.66;;;36.51;41.54
5522;BME280;2783;48.730;8.006;2023-09-08T10:37:20;100231.91;;;36.16;42.71
5522;BME280;2783;48.730;8.006;2023-09-08T10:39:46;100228.56;;;36.72;42.14
5522;BME280;2783;48.730;8.006;2023-09-08T10:44:44;100226.63;;;37.51;40.33
5522;BME280;2783;48.730;8.006;2023-09-08T10:47:39;100226.16;;;37.74;39.57
5522;BME280;2783;48.730;8.006;2023-09-08T10:50:05;100221.03;;;37.64;39.32
5522;BME280;2783;48.730;8.006;2023-09-08T10:52:31;100220.25;;;37.44;40.36
5522;BME280;2783;48.730;8.006;2023-09-08T10:54:58;100224.88;;;37.70;39.83
5522;BME280;2783;48.730;8.006;2023-09-08T10:57:24;100215.91;;;37.61;38.80
5522;BME280;2783;48.730;8.006;2023-09-08T10:59:54;100213.31;;;37.66;39.96
5522;BME280;2783;48.730;8.006;2023-09-08T11:02:49;100220.13;;;37.83;39.33
5522;BME280;2783;48.730;8.006;2023-09-08T11:05:19;100217.13;;;37.85;39.46
5522;BME280;2783;48.730;8.006;2023-09-08T11:07:48;100210.63;;;38.04;39.24
5522;BME280;2783;48.730;8.006;2023-09-08T11:10:18;100211.06;;;37.94;37.98
5522;BME280;2783;48.730;8.006;2023-09-08T11:12:43;100210.28;;;37.87;38.64
5522;BME280;2783;48.730;8.006;2023-09-08T11:15:09;100215.78;;;38.00;38.71
5522;BME280;2783;48.730;8.006;2023-09-08T11:17:36;100215.66;;;37.82;39.02
5522;BME280;2783;48.730;8.006;2023-09-08T11:20:05;100201.16;;;38.11;38.38
5522;BME280;2783;48.730;8.006;2023-09-08T11:22:34;100205.81;;;38.24;38.81
5522;BME280;2783;48.730;8.006;2023-09-08T11:25:00;100201.75;;;38.27;38.24
5522;BME280;2783;48.730;8.006;2023-09-08T11:27:30;100205.69;;;38.44;37.95
5522;BME280;2783;48.730;8.006;2023-09-08T11:29:56;100202.06;;;38.74;38.76
5522;BME280;2783;48.730;8.006;2023-09-08T11:32:23;100203.28;;;38.78;38.02
5522;BME280;2783;48.730;8.006;2023-09-08T11:34:48;100199.72;;;38.71;37.80
5522;BME280;2783;48.730;8.006;2023-09-08T11:37:14;100202.69;;;38.76;37.33
5522;BME280;2783;48.730;8.006;2023-09-08T11:39:42;100203.25;;;38.85;36.71
5522;BME280;2783;48.730;8.006;2023-09-08T11:42:08;100207.50;;;39.12;36.13
5522;BME280;2783;48.730;8.006;2023-09-08T11:44:35;100195.91;;;39.15;36.61
5522;BME280;2783;48.730;8.006;2023-09-08T11:47:02;100192.50;;;39.13;35.87
5522;BME280;2783;48.730;8.006;2023-09-08T11:49:40;100191.25;;;39.09;36.21
5522;BME280;2783;48.730;8.006;2023-09-08T11:52:06;100185.72;;;39.27;36.85
5522;BME280;2783;48.730;8.006;2023-09-08T11:54:34;100190.66;;;39.43;36.05
5522;BME280;2783;48.730;8.006;2023-09-08T11:57:02;100191.44;;;39.32;37.06
5522;BME280;2783;48.730;8.006;2023-09-08T11:59:30;100188.59;;;39.38;35.65
5522;BME280;2783;48.730;8.006;2023-09-08T12:01:56;100187.09;;;39.18;34.51
5522;BME280;2783;48.730;8.006;2023-09-08T12:04:22;100181.69;;;38.98;36.26
5522;BME280;2783;48.730;8.006;2023-09-08T12:06:54;100185.78;;;39.20;37.05
5522;BME280;2783;48.730;8.006;2023-09-08T12:09:23;100182.63;;;39.35;36.81
5522;BME280;2783;48.730;8.006;2023-09-08T12:11:49;100184.16;;;39.31;35.84
5522;BME280;2783;48.730;8.006;2023-09-08T12:14:15;100185.56;;;39.40;34.84
5522;BME280;2783;48.730;8.006;2023-09-08T12:16:41;100174.34;;;39.65;35.78
5522;BME280;2783;48.730;8.006;2023-09-08T12:19:07;100176.84;;;39.55;35.98
5522;BME280;2783;48.730;8.006;2023-09-08T12:21:55;100173.63;;;39.33;36.01
5522;BME280;2783;48.730;8.006;2023-09-08T12:27:11;100167.84;;;39.16;36.20
5522;BME280;2783;48.730;8.006;2023-09-08T12:29:37;100172.25;;;39.42;35.89
5522;BME280;2783;48.730;8.006;2023-09-08T12:32:02;100169.50;;;39.60;35.58
5522;BME280;2783;48.730;8.006;2023-09-08T12:34:28;100166.78;;;38.93;35.87
5522;BME280;2783;48.730;8.006;2023-09-08T12:36:55;100161.22;;;38.44;36.86
5522;BME280;2783;48.730;8.006;2023-09-08T12:39:20;100161.69;;;38.65;36.58
5522;BME280;2783;48.730;8.006;2023-09-08T12:41:46;100160.97;;;39.19;37.43
5522;BME280;2783;48.730;8.006;2023-09-08T12:44:11;100161.47;;;39.52;37.08
5522;BME280;2783;48.730;8.006;2023-09-08T12:46:36;100164.69;;;39.67;36.54
5522;BME280;2783;48.730;8.006;2023-09-08T12:49:02;100160.53;;;39.58;35.00
5522;BME280;2783;48.730;8.006;2023-09-08T12:51:27;100156.88;;;39.58;36.14
5522;BME280;2783;48.730;8.006;2023-09-08T12:53:53;100154.66;;;39.48;36.65
5522;BME280;2783;48.730;8.006;2023-09-08T12:56:18;100150.91;;;39.72;36.39
5522;BME280;2783;48.730;8.006;2023-09-08T12:58:43;100153.22;;;39.75;35.79
5522;BME280;2783;48.730;8.006;2023-09-08T13:01:09;100151.53;;;39.56;35.88
5522;BME280;2783;48.730;8.006;2023-09-08T13:03:34;100147.31;;;39.54;35.98
5522;BME280;2783;48.730;8.006;2023-09-08T13:05:59;100150.47;;;39.57;36.55
5522;BME280;2783;48.730;8.006;2023-09-08T13:08:25;100140.63;;;39.36;36.12
5522;BME280;2783;48.730;8.006;2023-09-08T13:10:50;100145.22;;;39.49;36.08
5522;BME280;2783;48.730;8.006;2023-09-08T13:13:16;100133.63;;;39.52;35.01
5522;BME280;2783;48.730;8.006;2023-09-08T13:15:41;100134.09;;;39.42;35.71